Atlas, Illinois
Current Conditions -  °F | °C
As of 11:35 PM on Wednesday 22 Oct 2014 (Local Time) from KPPQ Reporting Station
Clear Clear  
Wind Chill:   Ceiling: Unl
Heat Index:   Visibility: 10mi
Dew Point:   Wind: 3mph
Humidity: 90%   Direction: 140°SE
Pressure: 30.23"   Gusts: NA
Location:  39.5365°N, 91.0118°W
Report Text: KPPQ 230435Z AUTO 14003KT 10SM CLR 07/05 A3023 RMK AO2 T00650050
Loading
Personal Weather Stations






























Interactive Weather Map
Tropical Storm Tracking
New forecast layout! Learn more

10-Day Weather Forecast

Advertisements
Track Severe Weather on mobile